Time;durP1;ratioP1;P1;durP2;ratioP2;P2;SDS_P1;SDS_P2;PMS_P1;PMS_P2;Temp;Humidity;BMP_temperature;BMP_pressure;BME280_temperature;BME280_humidity;BME280_pressure;Samples;Min_cycle;Max_cycle;Signal;HPM_P1;HPM_P2
2021/12/01 00:00:42;;;;;;;23.98;9.43;;;9.50;99.90;;;;;;5006100;28;20483;-75
2021/12/01 00:03:08;;;;;;;26.27;9.38;;;9.50;99.90;;;;;;4972544;28;20054;-75
2021/12/01 00:05:34;;;;;;;27.00;10.70;;;9.50;99.90;;;;;;4985004;28;20470;-75
2021/12/01 00:08:00;;;;;;;21.40;9.43;;;9.50;99.90;;;;;;4998435;28;20570;-75
2021/12/01 00:10:26;;;;;;;;;;;9.50;99.90;;;;;;4968679;28;20066;-75
2021/12/01 00:12:53;;;;;;;28.67;8.90;;;9.50;99.90;;;;;;4983400;28;19929;-75
2021/12/01 00:15:19;;;;;;;25.35;9.48;;;9.50;99.90;;;;;;5006970;28;20046;-75
2021/12/01 00:17:45;;;;;;;;;;;9.50;99.90;;;;;;4986753;28;20045;-75
2021/12/01 00:20:15;;;;;;;23.63;8.55;;;9.50;99.90;;;;;;4989198;28;20391;-75
2021/12/01 00:22:41;;;;;;;23.00;9.57;;;9.50;99.90;;;;;;4969319;28;20039;-75
2021/12/01 00:25:09;;;;;;;22.70;9.77;;;9.50;99.90;;;;;;4988710;28;20049;-75
2021/12/01 00:27:35;;;;;;;28.38;9.13;;;9.60;99.90;;;;;;4985258;28;20038;-75
2021/12/01 00:30:01;;;;;;;19.90;8.47;;;9.60;99.90;;;;;;4987972;28;20132;-75
2021/12/01 00:32:27;;;;;;;23.17;9.50;;;9.60;99.90;;;;;;4988113;28;20514;-75
2021/12/01 00:34:53;;;;;;;;;;;9.60;99.90;;;;;;5003149;28;20046;-75
2021/12/01 00:37:19;;;;;;;26.83;8.25;;;9.50;99.90;;;;;;4986590;28;19917;-75
2021/12/01 00:39:45;;;;;;;23.02;7.38;;;9.60;99.90;;;;;;4985148;28;20077;-75
2021/12/01 00:42:12;;;;;;;25.10;8.23;;;9.60;99.90;;;;;;4981906;28;20518;-75
2021/12/01 00:44:45;;;;;;;25.45;7.22;;;9.70;99.90;;;;;;5004303;28;20300;-75
2021/12/01 00:47:12;;;;;;;19.75;7.97;;;9.60;99.90;;;;;;4984438;28;20038;-74
2021/12/01 00:49:38;;;;;;;20.58;8.25;;;9.70;99.90;;;;;;4987386;28;20042;-75
2021/12/01 00:52:04;;;;;;;15.00;8.05;;;9.60;99.90;;;;;;4988776;28;20046;-75
2021/12/01 00:54:30;;;;;;;19.40;8.20;;;9.70;99.90;;;;;;5004493;28;20487;-75
2021/12/01 00:56:55;;;;;;;20.08;6.85;;;9.60;99.90;;;;;;4985942;28;20073;-75
2021/12/01 00:59:21;;;;;;;18.23;6.77;;;9.70;99.90;;;;;;4983126;28;20591;-75
2021/12/01 01:01:47;;;;;;;15.63;7.13;;;9.70;99.90;;;;;;4988995;28;20120;-75
2021/12/01 01:04:14;;;;;;;13.90;5.57;;;9.70;99.90;;;;;;4989040;28;20084;-75
2021/12/01 01:06:40;;;;;;;20.98;6.68;;;9.70;99.90;;;;;;5000619;28;20305;-74
2021/12/01 01:09:06;;;;;;;20.90;6.57;;;9.70;99.90;;;;;;4972158;28;20092;-75
2021/12/01 01:17:13;;;;;;;14.82;4.85;;;9.70;99.90;;;;;;4980697;28;20041;-73
2021/12/01 01:19:39;;;;;;;18.63;5.07;;;9.70;99.90;;;;;;5005689;28;20030;-73
2021/12/01 01:22:06;;;;;;;11.90;4.88;;;9.80;99.90;;;;;;4987256;28;20068;-73
2021/12/01 01:24:41;;;;;;;11.55;6.05;;;9.80;99.90;;;;;;4988796;28;20477;-73
2021/12/01 01:27:11;;;;;;;16.00;4.40;;;9.80;99.90;;;;;;4979716;28;20491;-73
2021/12/01 01:29:37;;;;;;;13.43;4.93;;;9.70;99.90;;;;;;4987238;28;20096;-73
2021/12/01 01:32:03;;;;;;;12.17;4.50;;;9.80;99.90;;;;;;4988749;28;20046;-73
2021/12/01 01:34:29;;;;;;;13.95;3.95;;;9.80;99.90;;;;;;5006487;28;20037;-73
2021/12/01 01:36:55;;;;;;;18.50;3.80;;;9.80;99.90;;;;;;4968708;28;20042;-73
2021/12/01 01:39:23;;;;;;;15.23;4.10;;;9.80;99.90;;;;;;4987340;28;20446;-73
2021/12/01 01:41:49;;;;;;;13.97;4.17;;;9.70;99.90;;;;;;4969023;28;20104;-73
2021/12/01 01:44:15;;;;;;;14.57;3.77;;;9.70;99.90;;;;;;4988539;28;20475;-73
2021/12/01 01:46:41;;;;;;;8.53;2.70;;;9.70;99.90;;;;;;4985818;28;20406;-73
2021/12/01 01:49:11;;;;;;;10.50;2.83;;;9.70;99.90;;;;;;5000503;28;20307;-74
2021/12/01 01:51:39;;;;;;;8.27;3.03;;;9.70;99.90;;;;;;4988640;28;20042;-75
2021/12/01 01:54:07;;;;;;;8.00;2.45;;;9.70;99.90;;;;;;4987721;28;20088;-75
2021/12/01 01:56:33;;;;;;;11.60;3.58;;;9.70;99.90;;;;;;4980238;28;20079;-75
2021/12/01 01:58:58;;;;;;;11.53;2.50;;;9.80;99.90;;;;;;4987195;28;20074;-75
2021/12/01 02:01:44;;;;;;;10.17;2.60;;;9.70;99.90;;;;;;5004698;28;20042;-75
2021/12/01 02:04:15;;;;;;;10.85;1.85;;;9.80;99.90;;;;;;4988878;28;20498;-75
2021/12/01 02:06:41;;;;;;;8.25;1.63;;;9.70;99.90;;;;;;4980873;28;20073;-75
2021/12/01 02:09:07;;;;;;;8.27;1.70;;;9.70;99.90;;;;;;4989089;28;20042;-75
2021/12/01 02:11:34;;;;;;;8.25;1.60;;;9.70;99.90;;;;;;4986256;28;20049;-75
2021/12/01 02:14:02;;;;;;;6.95;1.63;;;9.70;99.90;;;;;;4997210;28;20237;-75
2021/12/01 02:16:27;;;;;;;8.50;1.58;;;9.70;99.90;;;;;;4998397;28;20545;-74
2021/12/01 02:18:54;;;;;;;10.17;1.10;;;9.70;99.90;;;;;;4990112;28;20053;-75
2021/12/01 02:21:28;;;;;;;9.32;1.02;;;9.70;99.90;;;;;;4972909;28;20042;-75
2021/12/01 02:24:00;;;;;;;7.80;1.30;;;9.70;99.90;;;;;;5008765;28;20304;-75
2021/12/01 02:26:28;;;;;;;5.18;1.35;;;9.70;99.90;;;;;;4988764;28;20433;-75
2021/12/01 02:28:57;;;;;;;4.60;1.63;;;9.70;99.90;;;;;;4990533;28;20105;-75
2021/12/01 02:31:25;;;;;;;10.32;2.05;;;9.70;99.90;;;;;;4990244;28;20565;-75
2021/12/01 02:33:53;;;;;;;5.05;1.70;;;9.80;99.90;;;;;;4978960;28;20068;-74
2021/12/01 02:36:19;;;;;;;9.65;2.38;;;9.70;99.90;;;;;;4987530;28;20516;-75
2021/12/01 02:38:46;;;;;;;6.72;1.80;;;9.80;99.90;;;;;;5008912;28;20065;-75
2021/12/01 02:41:13;;;;;;;8.93;1.95;;;9.70;99.90;;;;;;5006443;28;20042;-75
2021/12/01 02:43:40;;;;;;;12.73;2.05;;;9.70;99.90;;;;;;4984341;28;20046;-75
2021/12/01 02:46:06;;;;;;;6.60;2.10;;;9.80;99.90;;;;;;4986357;28;20048;-74
2021/12/01 02:48:41;;;;;;;17.20;2.55;;;9.80;99.90;;;;;;4987958;28;20600;-74
2021/12/01 02:51:06;;;;;;;8.23;1.60;;;9.80;99.90;;;;;;5003933;28;20041;-74
2021/12/01 02:53:32;;;;;;;9.57;1.70;;;9.80;99.90;;;;;;4973372;28;20429;-74
2021/12/01 02:56:00;;;;;;;9.53;1.40;;;9.80;99.90;;;;;;4986198;28;20065;-74
2021/12/01 02:58:31;;;;;;;11.63;1.60;;;9.80;99.90;;;;;;4991357;28;20042;-75
2021/12/01 03:01:00;;;;;;;7.85;1.90;;;9.80;99.90;;;;;;4990778;28;20048;-75
2021/12/01 03:03:27;;;;;;;7.35;1.30;;;9.90;99.90;;;;;;4987420;28;20498;-75
2021/12/01 03:05:54;;;;;;;11.63;1.90;;;9.90;99.90;;;;;;4974014;28;20077;-75
2021/12/01 03:08:25;;;;;;;10.55;1.98;;;9.80;99.90;;;;;;4984735;28;20046;-74
2021/12/01 03:10:53;;;;;;;10.20;1.70;;;9.80;99.90;;;;;;4990146;28;20041;-75
2021/12/01 03:13:21;;;;;;;8.10;1.30;;;9.90;99.90;;;;;;4983859;28;20479;-75
2021/12/01 03:15:47;;;;;;;5.93;1.70;;;9.90;99.90;;;;;;4997193;28;20038;-75
2021/12/01 03:18:13;;;;;;;8.30;1.73;;;9.90;99.90;;;;;;5000100;28;20565;-75
2021/12/01 03:20:39;;;;;;;13.27;2.20;;;9.90;99.90;;;;;;4972601;28;20046;-75
2021/12/01 03:23:05;;;;;;;9.33;2.07;;;9.90;99.90;;;;;;5001854;28;20080;-75
2021/12/01 03:25:31;;;;;;;10.73;3.13;;;9.80;99.90;;;;;;4991651;28;20034;-75
2021/12/01 03:27:57;;;;;;;14.57;2.58;;;9.90;99.90;;;;;;4990785;28;20510;-75
2021/12/01 03:30:23;;;;;;;14.87;2.60;;;9.80;99.90;;;;;;4990419;28;20261;-75
2021/12/01 03:32:49;;;;;;;9.07;1.75;;;9.80;99.90;;;;;;5001104;28;20034;-75
2021/12/01 03:35:16;;;;;;;11.65;2.33;;;9.80;99.90;;;;;;4990844;28;20056;-75
2021/12/01 03:37:45;;;;;;;17.33;2.10;;;9.80;99.90;;;;;;5008966;28;20481;-75
2021/12/01 03:40:13;;;;;;;11.75;2.03;;;9.80;99.90;;;;;;4988489;28;20053;-75
2021/12/01 03:42:40;;;;;;;21.75;3.33;;;9.80;99.90;;;;;;4988359;28;20128;-75
2021/12/01 03:45:06;;;;;;;;;;;9.80;99.90;;;;;;5005970;28;20555;-75
2021/12/01 03:47:33;;;;;;;14.25;1.95;;;9.80;99.90;;;;;;4975002;28;20190;-75
2021/12/01 03:49:59;;;;;;;12.02;2.25;;;9.80;99.90;;;;;;5007544;28;20041;-75
2021/12/01 03:52:25;;;;;;;;;;;9.70;99.90;;;;;;4988593;28;20092;-75
2021/12/01 03:54:52;;;;;;;13.32;2.20;;;9.70;99.90;;;;;;4990460;28;20370;-75
2021/12/01 03:57:18;;;;;;;19.08;2.47;;;9.70;99.90;;;;;;4985458;28;20550;-75
2021/12/01 03:59:44;;;;;;;;;;;9.70;99.90;;;;;;4970441;28;20045;-76
2021/12/01 04:02:10;;;;;;;18.92;2.60;;;9.70;99.90;;;;;;4983841;28;19940;-75
2021/12/01 04:04:35;;;;;;;8.80;2.00;;;9.70;99.90;;;;;;4988235;28;20049;-75
2021/12/01 04:07:02;;;;;;;11.63;2.20;;;9.60;99.90;;;;;;4987801;28;20975;-75
2021/12/01 04:09:28;;;;;;;11.50;2.20;;;9.60;99.90;;;;;;4989886;28;20582;-75
2021/12/01 04:11:54;;;;;;;13.73;2.10;;;9.70;99.90;;;;;;4986614;28;20584;-75
2021/12/01 04:14:20;;;;;;;13.20;3.05;;;9.70;99.90;;;;;;4986168;28;20038;-75
2021/12/01 04:16:45;;;;;;;12.93;2.30;;;9.60;99.90;;;;;;4989936;28;20216;-75
2021/12/01 04:19:11;;;;;;;12.53;2.63;;;9.70;99.90;;;;;;4988692;28;20053;-75
2021/12/01 04:21:37;;;;;;;9.83;1.97;;;9.70;99.90;;;;;;4971985;28;20072;-73
2021/12/01 04:24:03;;;;;;;10.60;2.30;;;9.60;99.90;;;;;;4990147;28;20050;-73
2021/12/01 04:26:32;;;;;;;13.07;2.00;;;9.60;99.90;;;;;;4987189;28;20301;-74
2021/12/01 04:28:57;;;;;;;11.38;1.60;;;9.60;99.90;;;;;;4984992;28;20128;-73
2021/12/01 04:31:24;;;;;;;10.43;1.40;;;9.60;99.90;;;;;;4971147;28;20172;-73
2021/12/01 04:33:50;;;;;;;5.63;1.60;;;9.60;99.90;;;;;;4971365;28;20045;-73
2021/12/01 04:36:19;;;;;;;11.17;1.40;;;9.60;99.90;;;;;;4974114;28;20391;-73
2021/12/01 04:38:45;;;;;;;9.90;1.15;;;9.60;99.90;;;;;;5004955;28;20045;-73
2021/12/01 04:41:13;;;;;;;6.50;1.20;;;9.60;99.90;;;;;;4987736;28;20123;-73
2021/12/01 04:43:39;;;;;;;5.18;1.15;;;9.60;99.90;;;;;;4986480;28;20076;-73
2021/12/01 04:46:05;;;;;;;5.40;1.25;;;9.60;99.90;;;;;;4965507;28;20052;-73
2021/12/01 04:48:32;;;;;;;6.10;1.30;;;9.60;99.90;;;;;;4972308;28;20151;-73
2021/12/01 04:50:58;;;;;;;4.07;1.35;;;9.60;99.90;;;;;;4989521;28;20053;-73
2021/12/01 04:53:26;;;;;;;2.42;1.02;;;9.60;99.90;;;;;;4983978;28;20185;-73
2021/12/01 04:55:54;;;;;;;3.38;1.00;;;9.60;99.90;;;;;;4985239;28;20109;-73
2021/12/01 04:58:21;;;;;;;2.10;1.10;;;9.60;99.90;;;;;;4984693;28;20042;-73
2021/12/01 05:00:47;;;;;;;2.45;1.10;;;9.60;99.90;;;;;;4987972;28;20122;-73
2021/12/01 05:03:12;;;;;;;3.97;0.90;;;9.60;99.90;;;;;;5004126;28;20041;-73
2021/12/01 05:05:38;;;;;;;2.27;1.00;;;9.70;99.90;;;;;;4988390;28;20537;-73
2021/12/01 05:08:04;;;;;;;1.50;0.83;;;9.70;99.90;;;;;;4983065;28;20045;-73
2021/12/01 05:10:30;;;;;;;2.37;1.00;;;9.70;99.90;;;;;;4989323;28;20053;-73
2021/12/01 05:12:55;;;;;;;3.67;0.90;;;9.70;99.90;;;;;;4984594;28;20228;-74
2021/12/01 05:15:21;;;;;;;1.35;0.73;;;9.70;99.90;;;;;;5006680;28;20503;-74
2021/12/01 05:17:47;;;;;;;2.07;0.57;;;9.70;99.90;;;;;;4987418;28;20042;-75
2021/12/01 05:20:13;;;;;;;1.07;0.60;;;9.70;99.90;;;;;;4988557;28;20321;-74
2021/12/01 05:22:39;;;;;;;1.70;0.43;;;9.70;99.90;;;;;;5001465;28;20308;-74
2021/12/01 05:25:05;;;;;;;0.70;0.32;;;9.60;99.90;;;;;;5005877;28;20407;-74
2021/12/01 05:27:31;;;;;;;1.20;0.30;;;9.70;99.90;;;;;;4998791;28;20164;-74
2021/12/01 05:29:57;;;;;;;1.23;0.50;;;9.60;99.90;;;;;;5004784;28;20048;-74
2021/12/01 05:32:23;;;;;;;0.67;0.40;;;9.60;99.90;;;;;;4986716;28;20434;-74
2021/12/01 05:34:49;;;;;;;0.50;0.30;;;9.60;99.90;;;;;;4988977;28;20033;-74
2021/12/01 05:37:14;;;;;;;1.07;0.47;;;9.60;99.90;;;;;;4998315;28;20049;-74
2021/12/01 05:39:44;;;;;;;1.80;0.77;;;9.60;99.90;;;;;;5002357;28;20372;-74
2021/12/01 05:42:13;;;;;;;1.42;0.85;;;9.50;99.90;;;;;;4983114;28;20061;-74
2021/12/01 05:44:42;;;;;;;1.25;0.85;;;9.60;99.90;;;;;;5015428;23;20061;-87
2021/12/01 05:47:10;;;;;;;1.35;0.90;;;9.50;99.90;;;;;;5029215;28;20422;-85
2021/12/01 05:49:45;;;;;;;1.75;0.80;;;9.50;99.90;;;;;;5032585;28;20047;-85
2021/12/01 05:52:16;;;;;;;;;;;9.40;99.90;;;;;;5043615;28;20072;-85
2021/12/01 05:54:51;;;;;;;0.82;0.60;;;9.40;99.90;;;;;;5052569;28;19916;-84
2021/12/01 05:57:19;;;;;;;1.20;0.68;;;9.40;99.90;;;;;;5024119;28;20334;-84
2021/12/01 05:59:45;;;;;;;2.58;1.33;;;9.40;99.90;;;;;;5033742;28;20041;-83
2021/12/01 06:02:12;;;;;;;1.97;1.33;;;9.40;99.90;;;;;;5051124;28;20044;-85
2021/12/01 06:04:38;;;;;;;2.33;1.10;;;9.40;99.90;;;;;;5042091;28;20037;-83
2021/12/01 06:07:04;;;;;;;3.43;1.53;;;9.30;99.90;;;;;;5053787;28;20052;-85
2021/12/01 06:09:30;;;;;;;3.00;1.50;;;9.30;99.90;;;;;;5031425;28;20045;-83
2021/12/01 06:12:02;;;;;;;2.75;1.27;;;9.20;99.90;;;;;;5036672;28;20124;-85
2021/12/01 06:14:31;;;;;;;5.07;1.60;;;9.30;99.90;;;;;;5040588;28;20084;-84
2021/12/01 06:16:56;;;;;;;2.78;1.52;;;9.30;99.90;;;;;;5039850;28;20045;-84
2021/12/01 06:19:22;;;;;;;3.53;1.47;;;9.30;99.90;;;;;;5048769;28;20037;-84
2021/12/01 06:21:48;;;;;;;2.08;1.27;;;9.30;99.90;;;;;;5038730;28;20040;-84
2021/12/01 06:24:16;;;;;;;4.37;1.90;;;9.30;99.90;;;;;;5044042;28;20494;-86
2021/12/01 06:26:42;;;;;;;1.90;1.20;;;9.30;99.90;;;;;;5039558;28;20129;-87
2021/12/01 06:29:07;;;;;;;3.23;1.77;;;9.30;99.90;;;;;;5028961;28;20127;-84
2021/12/01 06:31:33;;;;;;;2.57;1.57;;;9.30;99.90;;;;;;5034207;28;20033;-84
2021/12/01 06:34:02;;;;;;;3.90;2.47;;;9.30;99.90;;;;;;5047147;28;20029;-83
2021/12/01 06:36:28;;;;;;;2.10;1.42;;;9.30;99.90;;;;;;5048657;28;20499;-83
2021/12/01 06:38:54;;;;;;;2.47;1.60;;;9.30;99.90;;;;;;5040025;28;20036;-83
2021/12/01 06:41:20;;;;;;;5.20;2.07;;;9.30;99.90;;;;;;5040326;28;20449;-85
2021/12/01 06:43:45;;;;;;;3.27;1.87;;;9.30;99.90;;;;;;5052223;28;20507;-83
2021/12/01 06:46:11;;;;;;;4.00;2.10;;;9.30;99.90;;;;;;5040294;28;20498;-85
2021/12/01 06:48:36;;;;;;;3.47;2.07;;;9.30;99.90;;;;;;5046180;28;20034;-84
2021/12/01 06:51:02;;;;;;;2.97;1.67;;;9.20;99.90;;;;;;5044402;28;20041;-84
2021/12/01 06:53:29;;;;;;;2.60;1.97;;;9.20;99.90;;;;;;5048676;28;20395;-83
2021/12/01 06:55:55;;;;;;;3.08;2.15;;;9.20;99.90;;;;;;5048593;28;20364;-84
2021/12/01 06:58:20;;;;;;;5.10;2.17;;;9.20;99.90;;;;;;5047914;28;20029;-83
2021/12/01 07:00:46;;;;;;;4.50;2.50;;;9.20;99.90;;;;;;5059798;28;20051;-84
2021/12/01 07:03:12;;;;;;;7.20;2.80;;;9.20;99.90;;;;;;5050157;28;20044;-84
2021/12/01 07:05:37;;;;;;;4.07;2.30;;;9.30;99.90;;;;;;5047934;28;20037;-83
2021/12/01 07:08:04;;;;;;;4.70;2.70;;;9.30;99.90;;;;;;5047729;28;20044;-84
2021/12/01 07:10:30;;;;;;;5.25;2.80;;;9.20;99.90;;;;;;5059480;28;20118;-84
2021/12/01 07:13:01;;;;;;;5.97;2.47;;;9.30;99.90;;;;;;5035716;28;20095;-85
2021/12/01 07:15:27;;;;;;;5.88;3.33;;;9.40;99.90;;;;;;5048419;28;20461;-85
2021/12/01 07:18:04;;;;;;;6.30;2.92;;;9.20;99.90;;;;;;5031127;28;20041;-87
2021/12/01 07:20:38;;;;;;;5.72;2.67;;;9.30;99.90;;;;;;5035348;28;20471;-85
2021/12/01 07:23:09;;;;;;;6.35;3.35;;;9.30;99.90;;;;;;5044599;28;20081;-85
2021/12/01 07:25:38;;;;;;;5.30;2.60;;;9.30;99.90;;;;;;5050650;28;20048;-83
2021/12/01 07:28:16;;;;;;;7.68;2.70;;;9.30;99.90;;;;;;5041625;28;20033;-87
2021/12/01 07:30:50;;;;;;;9.05;2.95;;;9.30;99.90;;;;;;5021731;28;20406;-86
2021/12/01 07:33:16;;;;;;;6.38;3.03;;;9.30;99.90;;;;;;5045386;28;20147;-86
2021/12/01 07:35:44;;;;;;;7.23;3.10;;;9.40;99.90;;;;;;5030040;28;20052;-85
2021/12/01 07:38:15;;;;;;;7.07;2.85;;;9.40;99.90;;;;;;5051102;28;20064;-86
2021/12/01 07:40:44;;;;;;;7.03;3.05;;;9.30;99.90;;;;;;5049475;28;20044;-85
2021/12/01 07:43:18;;;;;;;8.20;3.20;;;9.40;99.90;;;;;;5038733;28;20130;-85
2021/12/01 07:45:45;;;;;;;12.10;2.92;;;9.40;99.90;;;;;;5060679;28;20144;-85
2021/12/01 07:48:11;;;;;;;7.93;2.53;;;9.40;99.90;;;;;;5024235;28;20498;-86
2021/12/01 07:50:40;;;;;;;6.35;2.85;;;9.40;99.90;;;;;;5025682;28;20033;-85
2021/12/01 07:53:07;;;;;;;5.45;2.60;;;9.40;99.90;;;;;;5042930;28;20045;-85
2021/12/01 07:55:32;;;;;;;6.53;2.40;;;9.40;99.90;;;;;;5043818;28;20025;-84
2021/12/01 07:57:58;;;;;;;11.77;3.13;;;9.50;99.90;;;;;;5047717;28;20049;-85
2021/12/01 08:00:27;;;;;;;7.23;2.77;;;9.40;99.90;;;;;;5037641;28;20386;-86
2021/12/01 08:02:53;;;;;;;6.35;2.17;;;9.40;99.90;;;;;;5032562;28;20406;-84
2021/12/01 08:05:19;;;;;;;4.82;2.05;;;9.40;99.90;;;;;;5032099;28;20045;-84
2021/12/01 08:07:44;;;;;;;9.03;2.87;;;9.40;99.90;;;;;;5038956;28;20180;-86
2021/12/01 08:10:10;;;;;;;11.43;2.67;;;9.40;99.90;;;;;;5047217;28;20072;-84
2021/12/01 08:12:38;;;;;;;6.57;2.58;;;9.50;99.90;;;;;;5041170;28;20029;-84
2021/12/01 08:15:05;;;;;;;4.38;2.30;;;9.40;99.90;;;;;;5028587;28;20096;-84
2021/12/01 08:17:41;;;;;;;2.85;1.55;;;9.40;99.90;;;;;;5043688;28;20704;-85
2021/12/01 08:20:10;;;;;;;3.60;1.27;;;9.40;99.90;;;;;;5041154;28;20112;-84
2021/12/01 08:22:38;;;;;;;8.05;2.10;;;9.40;99.90;;;;;;5044165;28;20103;-84
2021/12/01 08:25:05;;;;;;;7.40;1.42;;;9.30;99.90;;;;;;5040534;28;20057;-85
2021/12/01 08:27:33;;;;;;;11.70;1.58;;;9.20;99.90;;;;;;5057168;28;20117;-85
2021/12/01 08:30:02;;;;;;;10.33;1.40;;;9.20;99.90;;;;;;5047834;28;20124;-85
2021/12/01 08:32:31;;;;;;;10.05;1.55;;;9.20;99.90;;;;;;5045225;28;20025;-85
2021/12/01 08:34:56;;;;;;;11.02;1.33;;;9.00;99.90;;;;;;5042184;28;20047;-84
2021/12/01 08:37:25;;;;;;;7.03;1.30;;;9.10;99.90;;;;;;5034791;28;20049;-86
2021/12/01 08:39:53;;;;;;;8.32;1.50;;;9.10;99.90;;;;;;5035822;28;20080;-85
2021/12/01 08:42:23;;;;;;;10.05;2.55;;;9.00;99.90;;;;;;5039419;28;20469;-85
2021/12/01 08:44:52;;;;;;;8.60;1.50;;;8.90;99.90;;;;;;5036079;28;20559;-86
2021/12/01 08:47:24;;;;;;;6.63;1.10;;;8.90;99.90;;;;;;5037522;28;20051;-86
2021/12/01 08:49:55;;;;;;;6.05;1.73;;;8.90;99.90;;;;;;5031634;28;20041;-85
2021/12/01 08:52:48;;;;;;;4.70;0.90;;;9.00;99.90;;;;;;5033030;28;20377;-85
2021/12/01 08:56:08;;;;;;;5.35;0.77;;;8.90;99.90;;;;;;5041867;28;20043;-85
2021/12/01 08:58:42;;;;;;;6.32;0.70;;;9.00;99.90;;;;;;5028663;28;20049;-85
2021/12/01 09:01:10;;;;;;;7.75;1.30;;;9.00;99.90;;;;;;5038747;28;20099;-85
2021/12/01 09:03:36;;;;;;;7.28;1.00;;;9.00;99.90;;;;;;5056377;28;20041;-86
2021/12/01 09:06:03;;;;;;;8.13;1.05;;;9.00;99.90;;;;;;5045982;28;20407;-85
2021/12/01 09:08:29;;;;;;;;;;;9.00;99.90;;;;;;5032259;28;20033;-84
2021/12/01 09:11:05;;;;;;;6.30;0.90;;;8.90;99.90;;;;;;5021475;28;19924;-84
2021/12/01 09:13:37;;;;;;;6.03;1.23;;;8.90;99.90;;;;;;5036887;28;20128;-84
2021/12/01 09:16:13;;;;;;;7.35;1.30;;;8.90;99.90;;;;;;5017320;28;20547;-83
2021/12/01 09:18:42;;;;;;;7.03;1.05;;;8.80;99.90;;;;;;5023031;28;20087;-83
2021/12/01 09:21:13;;;;;;;8.88;0.95;;;8.80;99.90;;;;;;5039413;28;20028;-84
2021/12/01 09:23:41;;;;;;;3.03;0.95;;;8.80;99.90;;;;;;5043712;28;20068;-85
2021/12/01 09:26:19;;;;;;;4.22;1.33;;;8.70;99.90;;;;;;5056818;28;20076;-84
2021/12/01 09:29:01;;;;;;;6.05;1.00;;;8.80;99.90;;;;;;5021605;28;20049;-84
2021/12/01 09:31:33;;;;;;;6.22;0.95;;;8.80;99.90;;;;;;5028479;28;20427;-85
2021/12/01 09:33:59;;;;;;;7.25;0.90;;;8.80;99.90;;;;;;5025171;28;20333;-85
2021/12/01 09:36:35;;;;;;;7.40;1.25;;;8.70;99.90;;;;;;5024407;28;20084;-84
2021/12/01 09:39:01;;;;;;;10.88;1.23;;;8.70;99.90;;;;;;5036935;28;20038;-85
2021/12/01 09:41:29;;;;;;;8.10;1.30;;;8.70;99.90;;;;;;5056413;28;20549;-87
2021/12/01 09:43:57;;;;;;;15.55;1.63;;;8.70;99.90;;;;;;5027185;28;20144;-87
2021/12/01 09:46:24;;;;;;;9.70;1.10;;;8.70;99.90;;;;;;5045721;28;20113;-85
2021/12/01 09:49:01;;;;;;;7.80;1.65;;;8.80;99.90;;;;;;5035975;28;20091;-85
2021/12/01 09:51:27;;;;;;;12.93;1.48;;;8.80;99.90;;;;;;5034603;28;20511;-84
2021/12/01 09:53:55;;;;;;;6.07;1.52;;;8.80;99.90;;;;;;5037723;28;20306;-84
2021/12/01 09:56:36;;;;;;;;;;;;;;;;;;;;;
2021/12/01 09:59:18;;;;;;;10.55;1.77;;;8.80;99.90;;;;;;5036559;28;20477;-84
2021/12/01 10:02:35;;;;;;;13.90;2.13;;;8.90;99.90;;;;;;5022100;28;20052;-88
2021/12/01 10:05:01;;;;;;;15.23;2.65;;;8.90;99.90;;;;;;5003913;28;20045;-84
2021/12/01 10:07:36;;;;;;;12.25;2.40;;;9.00;99.90;;;;;;5029398;28;20053;-85
2021/12/01 10:10:15;;;;;;;15.25;1.77;;;9.00;99.90;;;;;;5035890;28;20052;-84
2021/12/01 10:12:51;;;;;;;13.13;1.85;;;8.90;99.90;;;;;;5038296;28;20040;-84
2021/12/01 10:15:29;;;;;;;19.80;2.30;;;9.00;99.90;;;;;;5022550;28;20029;-86
2021/12/01 10:18:34;;;;;;;7.95;1.60;;;9.00;99.90;;;;;;5045536;28;20390;-85
2021/12/01 10:21:15;;;;;;;13.80;2.38;;;8.90;99.90;;;;;;5022530;28;20060;-84
2021/12/01 10:23:49;;;;;;;13.07;1.85;;;8.90;99.90;;;;;;5046917;28;20056;-84
2021/12/01 10:26:32;;;;;;;;;;;8.90;99.90;;;;;;5039267;28;20045;-84
2021/12/01 10:32:35;;;;;;;10.13;1.65;;;8.90;99.90;;;;;;5024779;28;20099;-84
2021/12/01 10:35:03;;;;;;;12.82;2.20;;;8.80;99.90;;;;;;5030002;23;20084;-68
2021/12/01 10:37:31;;;;;;;12.52;1.50;;;8.80;99.90;;;;;;5001976;28;20060;-69
2021/12/01 10:40:21;;;;;;;10.70;1.70;;;8.80;99.90;;;;;;4993899;28;20045;-69
2021/12/01 10:42:58;;;;;;;5.47;1.27;;;8.70;99.90;;;;;;5005378;28;20048;-69
2021/12/01 10:45:27;;;;;;;5.75;0.95;;;8.70;99.90;;;;;;4984801;28;20077;-70
2021/12/01 10:47:53;;;;;;;4.55;1.02;;;8.70;99.90;;;;;;4989551;28;20062;-72
2021/12/01 10:50:23;;;;;;;7.93;1.33;;;8.70;99.90;;;;;;5005617;28;20060;-70
2021/12/01 10:53:10;;;;;;;11.38;2.20;;;8.70;99.90;;;;;;4998018;28;20041;-68
2021/12/01 10:55:48;;;;;;;15.73;1.88;;;8.70;99.90;;;;;;4983054;28;20104;-69
2021/12/01 10:58:15;;;;;;;16.65;2.78;;;8.70;99.90;;;;;;4981925;28;20049;-70
2021/12/01 11:00:47;;;;;;;9.50;1.90;;;8.80;99.90;;;;;;4977874;28;20115;-69
2021/12/01 11:03:15;;;;;;;15.07;1.55;;;8.80;99.90;;;;;;5001159;28;20046;-70
2021/12/01 11:05:44;;;;;;;12.20;2.17;;;8.80;99.90;;;;;;4986799;28;20045;-71
2021/12/01 11:08:21;;;;;;;12.23;1.58;;;8.80;99.90;;;;;;4985611;28;20052;-70
2021/12/01 11:11:07;;;;;;;11.75;1.50;;;8.80;99.90;;;;;;4981896;28;20173;-70
2021/12/01 11:13:34;;;;;;;12.38;2.38;;;8.90;99.90;;;;;;4983377;28;20050;-70
2021/12/01 11:16:02;;;;;;;10.93;1.85;;;8.90;99.90;;;;;;4996633;28;20646;-71
2021/12/01 11:18:31;;;;;;;19.35;1.75;;;8.90;99.90;;;;;;5003836;28;20052;-70
2021/12/01 11:21:03;;;;;;;15.13;2.00;;;8.90;99.90;;;;;;4989285;28;20054;-70
2021/12/01 11:23:34;;;;;;;10.18;2.60;;;9.00;99.90;;;;;;4987166;28;20474;-70
2021/12/01 11:26:06;;;;;;;23.90;2.13;;;9.00;99.90;;;;;;4987121;28;20050;-70
2021/12/01 11:28:38;;;;;;;18.58;2.03;;;9.00;99.90;;;;;;4980308;28;20399;-70
2021/12/01 11:31:10;;;;;;;15.15;2.80;;;9.00;99.90;;;;;;4983029;28;20054;-70
2021/12/01 11:33:37;;;;;;;20.98;2.78;;;9.00;99.90;;;;;;4983731;28;20049;-70
2021/12/01 11:36:08;;;;;;;18.27;3.25;;;9.00;99.90;;;;;;4987662;28;20057;-70
2021/12/01 11:38:35;;;;;;;21.45;2.70;;;9.10;99.90;;;;;;4988121;28;20665;-71
2021/12/01 11:41:03;;;;;;;17.38;3.67;;;9.00;99.90;;;;;;4984295;28;20049;-72
2021/12/01 11:43:31;;;;;;;21.58;3.30;;;9.00;99.30;;;;;;4990932;28;20628;-69
2021/12/01 11:45:57;;;;;;;14.85;2.50;;;8.90;98.40;;;;;;4990771;28;20601;-71
2021/12/01 11:48:31;;;;;;;18.35;2.72;;;8.90;97.70;;;;;;4986265;28;20046;-72
2021/12/01 11:51:16;;;;;;;11.85;2.85;;;8.80;97.30;;;;;;4988122;28;20041;-70
2021/12/01 11:56:20;;;;;;;18.00;2.28;;;8.70;97.00;;;;;;5041578;28;20064;-73
2021/12/01 11:58:50;;;;;;;12.25;2.63;;;8.70;96.20;;;;;;5025158;28;20103;-74
2021/12/01 12:01:21;;;;;;;14.73;2.47;;;8.70;96.40;;;;;;5023378;28;20048;-76
2021/12/01 12:03:53;;;;;;;21.30;3.33;;;8.70;96.00;;;;;;5004014;28;20090;-72
2021/12/01 12:06:24;;;;;;;24.35;3.55;;;8.70;96.60;;;;;;5037755;28;20090;-73
2021/12/01 12:08:53;;;;;;;20.52;3.67;;;8.70;96.70;;;;;;5019046;28;20103;-73
2021/12/01 12:11:56;;;;;;;14.30;3.00;;;8.60;96.90;;;;;;5006654;28;20033;-73
2021/12/01 12:14:30;;;;;;;15.63;2.50;;;8.60;96.90;;;;;;5012923;28;20048;-76
2021/12/01 12:17:13;;;;;;;20.35;4.50;;;8.60;97.20;;;;;;5019429;28;20124;-71
2021/12/01 12:20:03;;;;;;;17.55;2.22;;;8.60;97.00;;;;;;5018880;28;20039;-71
2021/12/01 12:25:01;;;;;;;8.32;2.30;;;8.60;96.70;;;;;;5032996;28;20659;-77
2021/12/01 12:27:40;;;;;;;12.60;1.50;;;8.70;96.10;;;;;;5016932;28;20092;-71
2021/12/01 12:30:35;;;;;;;14.30;1.60;;;8.70;96.20;;;;;;5025482;28;20441;-72
2021/12/01 12:33:19;;;;;;;6.30;1.17;;;8.70;95.70;;;;;;5016934;28;20041;-73
2021/12/01 12:35:48;;;;;;;11.77;1.13;;;8.80;95.30;;;;;;5010733;28;20108;-72
2021/12/01 12:38:14;;;;;;;6.05;1.27;;;8.70;95.60;;;;;;5037460;28;20041;-71
2021/12/01 12:40:41;;;;;;;7.47;1.65;;;8.70;95.70;;;;;;5027355;28;20124;-70
2021/12/01 12:43:13;;;;;;;9.35;1.73;;;8.60;96.30;;;;;;5026757;28;20403;-70
2021/12/01 12:45:58;;;;;;;11.52;2.00;;;8.60;96.60;;;;;;5009665;28;20038;-70
2021/12/01 12:48:45;;;;;;;9.27;2.08;;;8.50;96.80;;;;;;5031497;28;20038;-71
2021/12/01 12:51:20;;;;;;;8.27;1.45;;;8.50;96.80;;;;;;5031979;28;20041;-71
2021/12/01 12:54:08;;;;;;;11.55;1.58;;;8.50;97.20;;;;;;5035782;28;20044;-71
2021/12/01 12:56:37;;;;;;;;;;;8.50;96.60;;;;;;5013599;28;20068;-73
2021/12/01 12:59:15;;;;;;;12.10;1.73;;;8.50;96.50;;;;;;5038717;28;19917;-73
2021/12/01 13:01:40;;;;;;;9.15;2.20;;;8.40;96.70;;;;;;5015095;28;20582;-73
2021/12/01 13:04:06;;;;;;;10.47;1.30;;;8.40;97.10;;;;;;5035767;28;20152;-73
2021/12/01 13:06:32;;;;;;;14.17;2.30;;;8.40;96.80;;;;;;5015939;28;20409;-73
2021/12/01 13:09:16;;;;;;;10.48;2.00;;;8.40;96.50;;;;;;5029914;28;20110;-73
2021/12/01 13:11:42;;;;;;;11.07;1.58;;;8.40;96.50;;;;;;5030112;28;20043;-71
2021/12/01 13:14:08;;;;;;;8.93;1.70;;;8.40;96.40;;;;;;5012027;28;20489;-70
2021/12/01 13:16:33;;;;;;;12.57;2.97;;;8.30;96.60;;;;;;5017852;28;20127;-70
2021/12/01 13:19:07;;;;;;;7.67;1.53;;;8.30;96.70;;;;;;5029847;28;20633;-71
2021/12/01 13:21:36;;;;;;;8.90;1.70;;;8.30;96.10;;;;;;5016233;28;20095;-71